KCAD/CAD METAR and TAF weather

Enter ICAO airport designator
Station Type Date Time Source
KCAD METAR 2018/06/25 02:15 UTC NOAA

KCAD 250215Z AUTO 35003KT 10SM CLR 16/14 A3010 RMK AO2 T01590146


Station Type Date Time Source
KCAD Decoded METAR 2018/06/25 02:15 UTC NOAA

Cadillac / Wexford County, MI, United States (KCAD) 44-17N 085-25W
Jun 24, 2018 - 10:15 PM EDT / 2018.06.25 0215 UTC
Wind: from the N (350 degrees) at 3 MPH (3 KT):0
Visibility: 10 mile(s):0
Sky conditions: clear
Temperature: 60.6 F (15.9 C)
Dew Point: 58.3 F (14.6 C)
Relative Humidity: 91%
Pressure (altimeter): 30.1 in. Hg (1019 hPa)
ob: KCAD 250215Z AUTO 35003KT 10SM CLR 16/14 A3010 RMK AO2 T01590146
cycle: 2

Station Type Date Time Source
KCAD TAF UTC NOAA

Error!


Example: see airport list